<?xml version="1.0" encoding="UTF-8" standalone="no" ?>
<gpx xmlns="http://www.topografix.com/GPX/1/1" xmlns:xsi="http://www.w3.org/2001/XMLSchema-instance" xsi:schemaLocation="http://www.topografix.com/GPX/1/1 http://www.topografix.com/GPX/1/1/gpx.xsd" version="1.1" creator="VisuGPX - https://www.visugpx.com">
  <metadata>
    <name>Rando Circuit Beaudinard/Monges/Lac d\'Esparron</name>
    <desc><![CDATA[Belle rando un peu longue . Se garer sous le gite à Beaudinard (route non revêtue à partir de Reynier ) du parking descendre  la route en revenant en arrière jusqu\'après le pont,  puis la piste à gauche vers la Sapie , puis à droite dans le virage avant la ferme suivre le sentier peu balisé (rouge) mais visible qui monte dans les bois et débouche dans les alpages d\'où on monte à vue jusqu\'à la crête du Raus que l\'on suit jusqu\'à la crête des  Monges d\'où le sommet .
Retour par le lac d\'Esparron, [b] le joli sentier qui serpentait sous les Melezes a été massacré par les forestiers : C\'est une habitude détestable sur la commune de Bayons [/b] Du lac on suit le GR par une descente raide et caillouteuse (source)  puis plus agréable jusqu\'à Beaudinard joli hameau possédant un gite sympa
NOTE : compter 7 heures pour le tour complet]]></desc>
  </metadata>
  <trk>
    <name><![CDATA[N°22   Beaudinard/Sapie/Monges/Lac]]></name>
    <trkseg>
      <trkpt lat="44.28128" lon="6.17232">
        <ele>1333.4858398</ele>
        <time>2013-08-06T13:07:18Z</time>
      </trkpt>
      <trkpt lat="44.28133" lon="6.17225">
        <ele>1336.8503418</ele>
        <time>2013-08-06T13:07:32Z</time>
      </trkpt>
      <trkpt lat="44.28134" lon="6.17223">
        <ele>1339.734375</ele>
        <time>2013-08-06T13:07:36Z</time>
      </trkpt>
      <trkpt lat="44.28136" lon="6.17221">
        <ele>1343.0991211</ele>
        <time>2013-08-06T13:07:44Z</time>
      </trkpt>
      <trkpt lat="44.28136" lon="6.1722">
        <ele>1345.9831543</ele>
        <time>2013-08-06T13:07:49Z</time>
      </trkpt>
      <trkpt lat="44.28136" lon="6.17221">
        <ele>1349.3476563</ele>
        <time>2013-08-06T13:07:54Z</time>
      </trkpt>
      <trkpt lat="44.28137" lon="6.1722">
        <ele>1353.1928711</ele>
        <time>2013-08-06T13:08:13Z</time>
      </trkpt>
      <trkpt lat="44.28138" lon="6.17219">
        <ele>1353.673584</ele>
        <time>2013-08-06T13:08:15Z</time>
      </trkpt>
      <trkpt lat="44.2814" lon="6.17215">
        <ele>1354.6347656</ele>
        <time>2013-08-06T13:08:22Z</time>
      </trkpt>
      <trkpt lat="44.28142" lon="6.17212">
        <ele>1355.1154785</ele>
        <time>2013-08-06T13:08:26Z</time>
      </trkpt>
      <trkpt lat="44.28152" lon="6.17205">
        <ele>1356.0769043</ele>
        <time>2013-08-06T13:08:42Z</time>
      </trkpt>
      <trkpt lat="44.28163" lon="6.1719">
        <ele>1355.5961914</ele>
        <time>2013-08-06T13:09:09Z</time>
      </trkpt>
      <trkpt lat="44.28176" lon="6.17178">
        <ele>1354.6347656</ele>
        <time>2013-08-06T13:09:31Z</time>
      </trkpt>
      <trkpt lat="44.28187" lon="6.17174">
        <ele>1352.2314453</ele>
        <time>2013-08-06T13:09:48Z</time>
      </trkpt>
      <trkpt lat="44.28187" lon="6.17173">
        <ele>1351.2702637</ele>
        <time>2013-08-06T13:09:54Z</time>
      </trkpt>
      <trkpt lat="44.28197" lon="6.17169">
        <ele>1347.9057617</ele>
        <time>2013-08-06T13:10:19Z</time>
      </trkpt>
      <trkpt lat="44.28218" lon="6.17157">
        <ele>1345.0217285</ele>
        <time>2013-08-06T13:10:44Z</time>
      </trkpt>
      <trkpt lat="44.28225" lon="6.17151">
        <ele>1342.6186523</ele>
        <time>2013-08-06T13:11:03Z</time>
      </trkpt>
      <trkpt lat="44.28229" lon="6.17146">
        <ele>1341.6572266</ele>
        <time>2013-08-06T13:11:10Z</time>
      </trkpt>
      <trkpt lat="44.28237" lon="6.17138">
        <ele>1340.6958008</ele>
        <time>2013-08-06T13:11:21Z</time>
      </trkpt>
      <trkpt lat="44.28237" lon="6.17135">
        <ele>1341.1765137</ele>
        <time>2013-08-06T13:11:23Z</time>
      </trkpt>
      <trkpt lat="44.2824" lon="6.17126">
        <ele>1341.6572266</ele>
        <time>2013-08-06T13:11:36Z</time>
      </trkpt>
      <trkpt lat="44.28245" lon="6.17116">
        <ele>1339.734375</ele>
        <time>2013-08-06T13:11:50Z</time>
      </trkpt>
      <trkpt lat="44.28246" lon="6.1711">
        <ele>1339.734375</ele>
        <time>2013-08-06T13:11:56Z</time>
      </trkpt>
      <trkpt lat="44.2825" lon="6.17106">
        <ele>1339.734375</ele>
        <time>2013-08-06T13:12:01Z</time>
      </trkpt>
      <trkpt lat="44.28258" lon="6.17098">
        <ele>1337.8117676</ele>
        <time>2013-08-06T13:12:14Z</time>
      </trkpt>
      <trkpt lat="44.28259" lon="6.17091">
        <ele>1334.9279785</ele>
        <time>2013-08-06T13:12:41Z</time>
      </trkpt>
      <trkpt lat="44.28263" lon="6.17082">
        <ele>1332.0439453</ele>
        <time>2013-08-06T13:13:05Z</time>
      </trkpt>
      <trkpt lat="44.2824" lon="6.1709">
        <ele>1330.1213379</ele>
        <time>2013-08-06T13:13:25Z</time>
      </trkpt>
      <trkpt lat="44.2824" lon="6.17091">
        <ele>1331.5632324</ele>
        <time>2013-08-06T13:13:27Z</time>
      </trkpt>
      <trkpt lat="44.28252" lon="6.17073">
        <ele>1328.1987305</ele>
        <time>2013-08-06T13:14:05Z</time>
      </trkpt>
      <trkpt lat="44.2826" lon="6.17051">
        <ele>1326.276123</ele>
        <time>2013-08-06T13:14:29Z</time>
      </trkpt>
      <trkpt lat="44.28259" lon="6.17032">
        <ele>1325.7954102</ele>
        <time>2013-08-06T13:14:38Z</time>
      </trkpt>
      <trkpt lat="44.28259" lon="6.17029">
        <ele>1325.7954102</ele>
        <time>2013-08-06T13:14:40Z</time>
      </trkpt>
      <trkpt lat="44.28266" lon="6.1702">
        <ele>1325.3146973</ele>
        <time>2013-08-06T13:14:54Z</time>
      </trkpt>
      <trkpt lat="44.28269" lon="6.1701">
        <ele>1323.8725586</ele>
        <time>2013-08-06T13:15:07Z</time>
      </trkpt>
      <trkpt lat="44.28263" lon="6.16986">
        <ele>1322.4306641</ele>
        <time>2013-08-06T13:15:22Z</time>
      </trkpt>
      <trkpt lat="44.28264" lon="6.16972">
        <ele>1319.546875</ele>
        <time>2013-08-06T13:15:45Z</time>
      </trkpt>
      <trkpt lat="44.28273" lon="6.16954">
        <ele>1319.0661621</ele>
        <time>2013-08-06T13:15:58Z</time>
      </trkpt>
      <trkpt lat="44.28273" lon="6.16943">
        <ele>1317.6240234</ele>
        <time>2013-08-06T13:16:14Z</time>
      </trkpt>
      <trkpt lat="44.28273" lon="6.16934">
        <ele>1316.6628418</ele>
        <time>2013-08-06T13:16:35Z</time>
      </trkpt>
      <trkpt lat="44.28277" lon="6.16926">
        <ele>1315.7016602</ele>
        <time>2013-08-06T13:16:46Z</time>
      </trkpt>
      <trkpt lat="44.28279" lon="6.16919">
        <ele>1315.2209473</ele>
        <time>2013-08-06T13:16:52Z</time>
      </trkpt>
      <trkpt lat="44.28277" lon="6.169">
        <ele>1313.7788086</ele>
        <time>2013-08-06T13:17:12Z</time>
      </trkpt>
      <trkpt lat="44.28276" lon="6.16898">
        <ele>1311.8564453</ele>
        <time>2013-08-06T13:17:44Z</time>
      </trkpt>
      <trkpt lat="44.28281" lon="6.16885">
        <ele>1309.9335938</ele>
        <time>2013-08-06T13:18:03Z</time>
      </trkpt>
      <trkpt lat="44.28285" lon="6.16876">
        <ele>1307.0495605</ele>
        <time>2013-08-06T13:18:21Z</time>
      </trkpt>
      <trkpt lat="44.28284" lon="6.16847">
        <ele>1304.1657715</ele>
        <time>2013-08-06T13:18:47Z</time>
      </trkpt>
      <trkpt lat="44.28285" lon="6.1683">
        <ele>1301.2817383</ele>
        <time>2013-08-06T13:19:07Z</time>
      </trkpt>
      <trkpt lat="44.2829" lon="6.16814">
        <ele>1299.8398438</ele>
        <time>2013-08-06T13:19:25Z</time>
      </trkpt>
      <trkpt lat="44.28296" lon="6.16808">
        <ele>1298.878418</ele>
        <time>2013-08-06T13:19:42Z</time>
      </trkpt>
      <trkpt lat="44.28299" lon="6.16801">
        <ele>1295.9946289</ele>
        <time>2013-08-06T13:20:02Z</time>
      </trkpt>
      <trkpt lat="44.28296" lon="6.16802">
        <ele>1295.0332031</ele>
        <time>2013-08-06T13:20:12Z</time>
      </trkpt>
      <trkpt lat="44.28287" lon="6.16791">
        <ele>1293.1105957</ele>
        <time>2013-08-06T13:20:28Z</time>
      </trkpt>
      <trkpt lat="44.28286" lon="6.16786">
        <ele>1291.668457</ele>
        <time>2013-08-06T13:20:45Z</time>
      </trkpt>
      <trkpt lat="44.28276" lon="6.16784">
        <ele>1290.7070313</ele>
        <time>2013-08-06T13:20:55Z</time>
      </trkpt>
      <trkpt lat="44.28264" lon="6.1678">
        <ele>1289.2651367</ele>
        <time>2013-08-06T13:21:10Z</time>
      </trkpt>
      <trkpt lat="44.28266" lon="6.16768">
        <ele>1287.3425293</ele>
        <time>2013-08-06T13:21:24Z</time>
      </trkpt>
      <trkpt lat="44.28262" lon="6.16761">
        <ele>1285.9006348</ele>
        <time>2013-08-06T13:21:41Z</time>
      </trkpt>
      <trkpt lat="44.28274" lon="6.1675">
        <ele>1283.4973145</ele>
        <time>2013-08-06T13:21:59Z</time>
      </trkpt>
      <trkpt lat="44.28281" lon="6.16735">
        <ele>1279.6520996</ele>
        <time>2013-08-06T13:22:19Z</time>
      </trkpt>
      <trkpt lat="44.2829" lon="6.16719">
        <ele>1277.2490234</ele>
        <time>2013-08-06T13:22:41Z</time>
      </trkpt>
      <trkpt lat="44.28295" lon="6.16711">
        <ele>1274.845459</ele>
        <time>2013-08-06T13:22:58Z</time>
      </trkpt>
      <trkpt lat="44.28302" lon="6.16713">
        <ele>1273.8840332</ele>
        <time>2013-08-06T13:23:08Z</time>
      </trkpt>
      <trkpt lat="44.28306" lon="6.16715">
        <ele>1273.4035645</ele>
        <time>2013-08-06T13:23:24Z</time>
      </trkpt>
      <trkpt lat="44.28319" lon="6.16717">
        <ele>1272.4421387</ele>
        <time>2013-08-06T13:24:40Z</time>
      </trkpt>
      <trkpt lat="44.28327" lon="6.16728">
        <ele>1271.0002441</ele>
        <time>2013-08-06T13:24:57Z</time>
      </trkpt>
      <trkpt lat="44.28339" lon="6.16728">
        <ele>1271.4807129</ele>
        <time>2013-08-06T13:25:14Z</time>
      </trkpt>
      <trkpt lat="44.2835" lon="6.16715">
        <ele>1271.9614258</ele>
        <time>2013-08-06T13:25:29Z</time>
      </trkpt>
      <trkpt lat="44.28354" lon="6.1671">
        <ele>1271.4807129</ele>
        <time>2013-08-06T13:25:34Z</time>
      </trkpt>
      <trkpt lat="44.28358" lon="6.167">
        <ele>1271.4807129</ele>
        <time>2013-08-06T13:25:47Z</time>
      </trkpt>
      <trkpt lat="44.28358" lon="6.16696">
        <ele>1271.4807129</ele>
        <time>2013-08-06T13:25:50Z</time>
      </trkpt>
      <trkpt lat="44.28354" lon="6.16668">
        <ele>1272.4421387</ele>
        <time>2013-08-06T13:26:09Z</time>
      </trkpt>
      <trkpt lat="44.28355" lon="6.1666">
        <ele>1272.9228516</ele>
        <time>2013-08-06T13:26:16Z</time>
      </trkpt>
      <trkpt lat="44.28357" lon="6.16655">
        <ele>1272.9228516</ele>
        <time>2013-08-06T13:26:18Z</time>
      </trkpt>
      <trkpt lat="44.28358" lon="6.16651">
        <ele>1272.9228516</ele>
        <time>2013-08-06T13:26:21Z</time>
      </trkpt>
      <trkpt lat="44.28356" lon="6.16646">
        <ele>1273.4035645</ele>
        <time>2013-08-06T13:26:24Z</time>
      </trkpt>
      <trkpt lat="44.28357" lon="6.16632">
        <ele>1271.9614258</ele>
        <time>2013-08-06T13:26:41Z</time>
      </trkpt>
      <trkpt lat="44.28359" lon="6.16625">
        <ele>1272.4421387</ele>
        <time>2013-08-06T13:26:47Z</time>
      </trkpt>
      <trkpt lat="44.28361" lon="6.16622">
        <ele>1272.4421387</ele>
        <time>2013-08-06T13:26:50Z</time>
      </trkpt>
      <trkpt lat="44.28371" lon="6.1662">
        <ele>1272.4421387</ele>
        <time>2013-08-06T13:27:04Z</time>
      </trkpt>
      <trkpt lat="44.28382" lon="6.16608">
        <ele>1273.4035645</ele>
        <time>2013-08-06T13:27:23Z</time>
      </trkpt>
      <trkpt lat="44.28376" lon="6.16583">
        <ele>1274.845459</ele>
        <time>2013-08-06T13:27:46Z</time>
      </trkpt>
      <trkpt lat="44.28378" lon="6.16578">
        <ele>1275.3259277</ele>
        <time>2013-08-06T13:28:02Z</time>
      </trkpt>
      <trkpt lat="44.28378" lon="6.16572">
        <ele>1275.3259277</ele>
        <time>2013-08-06T13:28:07Z</time>
      </trkpt>
      <trkpt lat="44.28372" lon="6.16567">
        <ele>1275.3259277</ele>
        <time>2013-08-06T13:28:11Z</time>
      </trkpt>
      <trkpt lat="44.28369" lon="6.16551">
        <ele>1277.7294922</ele>
        <time>2013-08-06T13:28:22Z</time>
      </trkpt>
      <trkpt lat="44.28376" lon="6.16536">
        <ele>1277.7294922</ele>
        <time>2013-08-06T13:28:36Z</time>
      </trkpt>
      <trkpt lat="44.28397" lon="6.16518">
        <ele>1274.845459</ele>
        <time>2013-08-06T13:29:02Z</time>
      </trkpt>
      <trkpt lat="44.28404" lon="6.16509">
        <ele>1273.4035645</ele>
        <time>2013-08-06T13:29:13Z</time>
      </trkpt>
      <trkpt lat="44.28411" lon="6.16493">
        <ele>1272.9228516</ele>
        <time>2013-08-06T13:29:29Z</time>
      </trkpt>
      <trkpt lat="44.28415" lon="6.16486">
        <ele>1271.9614258</ele>
        <time>2013-08-06T13:29:42Z</time>
      </trkpt>
      <trkpt lat="44.28427" lon="6.16476">
        <ele>1270.0388184</ele>
        <time>2013-08-06T13:30:02Z</time>
      </trkpt>
      <trkpt lat="44.28438" lon="6.16468">
        <ele>1269.5583496</ele>
        <time>2013-08-06T13:30:16Z</time>
      </trkpt>
      <trkpt lat="44.28441" lon="6.16449">
        <ele>1268.5969238</ele>
        <time>2013-08-06T13:30:31Z</time>
      </trkpt>
      <trkpt lat="44.28443" lon="6.16443">
        <ele>1267.635498</ele>
        <time>2013-08-06T13:30:38Z</time>
      </trkpt>
      <trkpt lat="44.28441" lon="6.16436">
        <ele>1267.1550293</ele>
        <time>2013-08-06T13:30:43Z</time>
      </trkpt>
      <trkpt lat="44.28448" lon="6.16425">
        <ele>1266.6743164</ele>
        <time>2013-08-06T13:30:56Z</time>
      </trkpt>
      <trkpt lat="44.2845" lon="6.1641">
        <ele>1265.7131348</ele>
        <time>2013-08-06T13:31:12Z</time>
      </trkpt>
      <trkpt lat="44.28452" lon="6.16408">
        <ele>1265.2324219</ele>
        <time>2013-08-06T13:31:15Z</time>
      </trkpt>
      <trkpt lat="44.28454" lon="6.16395">
        <ele>1264.2709961</ele>
        <time>2013-08-06T13:31:29Z</time>
      </trkpt>
      <trkpt lat="44.28466" lon="6.16379">
        <ele>1263.3098145</ele>
        <time>2013-08-06T13:31:45Z</time>
      </trkpt>
      <trkpt lat="44.28478" lon="6.16364">
        <ele>1261.387207</ele>
        <time>2013-08-06T13:32:04Z</time>
      </trkpt>
      <trkpt lat="44.28482" lon="6.16358">
        <ele>1260.9064941</ele>
        <time>2013-08-06T13:32:21Z</time>
      </trkpt>
      <trkpt lat="44.28488" lon="6.16347">
        <ele>1260.9064941</ele>
        <time>2013-08-06T13:32:32Z</time>
      </trkpt>
      <trkpt lat="44.28498" lon="6.16332">
        <ele>1258.9836426</ele>
        <time>2013-08-06T13:32:47Z</time>
      </trkpt>
      <trkpt lat="44.28503" lon="6.16319">
        <ele>1259.4643555</ele>
        <time>2013-08-06T13:33:05Z</time>
      </trkpt>
      <trkpt lat="44.28513" lon="6.16303">
        <ele>1257.541748</ele>
        <time>2013-08-06T13:33:26Z</time>
      </trkpt>
      <trkpt lat="44.28514" lon="6.16297">
        <ele>1257.0610352</ele>
        <time>2013-08-06T13:33:40Z</time>
      </trkpt>
      <trkpt lat="44.28515" lon="6.1629">
        <ele>1257.541748</ele>
        <time>2013-08-06T13:33:59Z</time>
      </trkpt>
      <trkpt lat="44.28515" lon="6.16291">
        <ele>1256.5803223</ele>
        <time>2013-08-06T13:34:14Z</time>
      </trkpt>
      <trkpt lat="44.28522" lon="6.16287">
        <ele>1255.1384277</ele>
        <time>2013-08-06T13:34:29Z</time>
      </trkpt>
      <trkpt lat="44.28528" lon="6.16287">
        <ele>1252.7351074</ele>
        <time>2013-08-06T13:34:44Z</time>
      </trkpt>
      <trkpt lat="44.28541" lon="6.16289">
        <ele>1252.2543945</ele>
        <time>2013-08-06T13:34:59Z</time>
      </trkpt>
      <trkpt lat="44.28552" lon="6.16297">
        <ele>1250.8125</ele>
        <time>2013-08-06T13:35:16Z</time>
      </trkpt>
      <trkpt lat="44.2856" lon="6.16298">
        <ele>1250.3320313</ele>
        <time>2013-08-06T13:35:27Z</time>
      </trkpt>
      <trkpt lat="44.28569" lon="6.16291">
        <ele>1248.8898926</ele>
        <time>2013-08-06T13:35:42Z</time>
      </trkpt>
      <trkpt lat="44.28576" lon="6.1627">
        <ele>1247.9287109</ele>
        <time>2013-08-06T13:36:06Z</time>
      </trkpt>
      <trkpt lat="44.28585" lon="6.16262">
        <ele>1246.9672852</ele>
        <time>2013-08-06T13:36:23Z</time>
      </trkpt>
      <trkpt lat="44.28595" lon="6.16275">
        <ele>1244.0834961</ele>
        <time>2013-08-06T13:36:44Z</time>
      </trkpt>
      <trkpt lat="44.28608" lon="6.16291">
        <ele>1242.6413574</ele>
        <time>2013-08-06T13:37:08Z</time>
      </trkpt>
      <trkpt lat="44.28623" lon="6.16289">
        <ele>1240.7185059</ele>
        <time>2013-08-06T13:37:26Z</time>
      </trkpt>
      <trkpt lat="44.28635" lon="6.16291">
        <ele>1239.2766113</ele>
        <time>2013-08-06T13:37:44Z</time>
      </trkpt>
      <trkpt lat="44.28642" lon="6.16296">
        <ele>1238.3154297</ele>
        <time>2013-08-06T13:38:04Z</time>
      </trkpt>
      <trkpt lat="44.28658" lon="6.16311">
        <ele>1237.3540039</ele>
        <time>2013-08-06T13:38:26Z</time>
      </trkpt>
      <trkpt lat="44.28665" lon="6.16314">
        <ele>1235.4313965</ele>
        <time>2013-08-06T13:38:46Z</time>
      </trkpt>
      <trkpt lat="44.28672" lon="6.16304">
        <ele>1235.9121094</ele>
        <time>2013-08-06T13:38:55Z</time>
      </trkpt>
      <trkpt lat="44.28673" lon="6.16302">
        <ele>1235.9121094</ele>
        <time>2013-08-06T13:38:58Z</time>
      </trkpt>
      <trkpt lat="44.2868" lon="6.163">
        <ele>1235.9121094</ele>
        <time>2013-08-06T13:39:12Z</time>
      </trkpt>
      <trkpt lat="44.2869" lon="6.16284">
        <ele>1235.4313965</ele>
        <time>2013-08-06T13:39:28Z</time>
      </trkpt>
      <trkpt lat="44.28701" lon="6.16267">
        <ele>1235.9121094</ele>
        <time>2013-08-06T13:39:44Z</time>
      </trkpt>
      <trkpt lat="44.28715" lon="6.1626">
        <ele>1235.9121094</ele>
        <time>2013-08-06T13:40:02Z</time>
      </trkpt>
      <trkpt lat="44.28716" lon="6.1626">
        <ele>1235.9121094</ele>
        <time>2013-08-06T13:40:03Z</time>
      </trkpt>
      <trkpt lat="44.28722" lon="6.1625">
        <ele>1235.9121094</ele>
        <time>2013-08-06T13:40:19Z</time>
      </trkpt>
      <trkpt lat="44.28729" lon="6.16244">
        <ele>1235.4313965</ele>
        <time>2013-08-06T13:40:35Z</time>
      </trkpt>
      <trkpt lat="44.28733" lon="6.16234">
        <ele>1236.873291</ele>
        <time>2013-08-06T13:40:49Z</time>
      </trkpt>
      <trkpt lat="44.28744" lon="6.16225">
        <ele>1237.3540039</ele>
        <time>2013-08-06T13:41:04Z</time>
      </trkpt>
      <trkpt lat="44.28748" lon="6.16223">
        <ele>1237.3540039</ele>
        <time>2013-08-06T13:41:07Z</time>
      </trkpt>
      <trkpt lat="44.2875" lon="6.1622">
        <ele>1236.3928223</ele>
        <time>2013-08-06T13:41:12Z</time>
      </trkpt>
      <trkpt lat="44.28753" lon="6.16199">
        <ele>1233.989502</ele>
        <time>2013-08-06T13:41:29Z</time>
      </trkpt>
      <trkpt lat="44.28753" lon="6.16192">
        <ele>1232.5476074</ele>
        <time>2013-08-06T13:41:46Z</time>
      </trkpt>
      <trkpt lat="44.28754" lon="6.1618">
        <ele>1229.1828613</ele>
        <time>2013-08-06T13:42:04Z</time>
      </trkpt>
      <trkpt lat="44.28755" lon="6.16175">
        <ele>1227.2602539</ele>
        <time>2013-08-06T13:42:36Z</time>
      </trkpt>
      <trkpt lat="44.28768" lon="6.16163">
        <ele>1225.3374023</ele>
        <time>2013-08-06T13:42:56Z</time>
      </trkpt>
      <trkpt lat="44.28776" lon="6.16152">
        <ele>1223.4150391</ele>
        <time>2013-08-06T13:43:14Z</time>
      </trkpt>
      <trkpt lat="44.28784" lon="6.16134">
        <ele>1221.9729004</ele>
        <time>2013-08-06T13:43:32Z</time>
      </trkpt>
      <trkpt lat="44.28786" lon="6.1613">
        <ele>1221.4921875</ele>
        <time>2013-08-06T13:43:36Z</time>
      </trkpt>
      <trkpt lat="44.28797" lon="6.16128">
        <ele>1221.0117188</ele>
        <time>2013-08-06T13:43:47Z</time>
      </trkpt>
      <trkpt lat="44.28806" lon="6.16131">
        <ele>1219.5698242</ele>
        <time>2013-08-06T13:44:02Z</time>
      </trkpt>
      <trkpt lat="44.28819" lon="6.16135">
        <ele>1218.1276855</ele>
        <time>2013-08-06T13:44:23Z</time>
      </trkpt>
      <trkpt lat="44.28825" lon="6.16123">
        <ele>1216.2050781</ele>
        <time>2013-08-06T13:44:38Z</time>
      </trkpt>
      <trkpt lat="44.28826" lon="6.16115">
        <ele>1216.685791</ele>
        <time>2013-08-06T13:44:45Z</time>
      </trkpt>
      <trkpt lat="44.28831" lon="6.16098">
        <ele>1216.2050781</ele>
        <time>2013-08-06T13:45:01Z</time>
      </trkpt>
      <trkpt lat="44.28835" lon="6.16093">
        <ele>1215.2438965</ele>
        <time>2013-08-06T13:45:13Z</time>
      </trkpt>
      <trkpt lat="44.2884" lon="6.1608">
        <ele>1212.8405762</ele>
        <time>2013-08-06T13:45:32Z</time>
      </trkpt>
      <trkpt lat="44.28842" lon="6.16062">
        <ele>1210.4370117</ele>
        <time>2013-08-06T13:45:53Z</time>
      </trkpt>
      <trkpt lat="44.28841" lon="6.16051">
        <ele>1209.9562988</ele>
        <time>2013-08-06T13:46:06Z</time>
      </trkpt>
      <trkpt lat="44.28844" lon="6.1604">
        <ele>1207.0725098</ele>
        <time>2013-08-06T13:46:26Z</time>
      </trkpt>
      <trkpt lat="44.28848" lon="6.16022">
        <ele>1205.6306152</ele>
        <time>2013-08-06T13:46:47Z</time>
      </trkpt>
      <trkpt lat="44.28853" lon="6.16012">
        <ele>1203.2272949</ele>
        <time>2013-08-06T13:47:04Z</time>
      </trkpt>
      <trkpt lat="44.28858" lon="6.15996">
        <ele>1200.3435059</ele>
        <time>2013-08-06T13:47:21Z</time>
      </trkpt>
      <trkpt lat="44.28857" lon="6.15976">
        <ele>1197.9401855</ele>
        <time>2013-08-06T13:47:42Z</time>
      </trkpt>
      <trkpt lat="44.28857" lon="6.15964">
        <ele>1195.0559082</ele>
        <time>2013-08-06T13:47:58Z</time>
      </trkpt>
      <trkpt lat="44.28858" lon="6.1594">
        <ele>1193.1333008</ele>
        <time>2013-08-06T13:48:20Z</time>
      </trkpt>
      <trkpt lat="44.28857" lon="6.15937">
        <ele>1193.1333008</ele>
        <time>2013-08-06T13:48:22Z</time>
      </trkpt>
      <trkpt lat="44.28859" lon="6.15923">
        <ele>1191.6914063</ele>
        <time>2013-08-06T13:48:37Z</time>
      </trkpt>
      <trkpt lat="44.28863" lon="6.15917">
        <ele>1191.2106934</ele>
        <time>2013-08-06T13:48:54Z</time>
      </trkpt>
      <trkpt lat="44.28862" lon="6.15906">
        <ele>1190.7299805</ele>
        <time>2013-08-06T13:49:20Z</time>
      </trkpt>
      <trkpt lat="44.2886" lon="6.15891">
        <ele>1191.6914063</ele>
        <time>2013-08-06T13:49:38Z</time>
      </trkpt>
      <trkpt lat="44.28856" lon="6.15875">
        <ele>1192.1721191</ele>
        <time>2013-08-06T13:49:52Z</time>
      </trkpt>
      <trkpt lat="44.28854" lon="6.15856">
        <ele>1191.6914063</ele>
        <time>2013-08-06T13:50:08Z</time>
      </trkpt>
      <trkpt lat="44.28854" lon="6.15838">
        <ele>1193.6140137</ele>
        <time>2013-08-06T13:50:23Z</time>
      </trkpt>
      <trkpt lat="44.28854" lon="6.15835">
        <ele>1193.6140137</ele>
        <time>2013-08-06T13:50:25Z</time>
      </trkpt>
      <trkpt lat="44.28853" lon="6.15825">
        <ele>1194.5751953</ele>
        <time>2013-08-06T13:50:33Z</time>
      </trkpt>
      <trkpt lat="44.28852" lon="6.15814">
        <ele>1196.0175781</ele>
        <time>2013-08-06T13:50:47Z</time>
      </trkpt>
      <trkpt lat="44.28848" lon="6.15796">
        <ele>1196.498291</ele>
        <time>2013-08-06T13:51:02Z</time>
      </trkpt>
      <trkpt lat="44.28848" lon="6.15785">
        <ele>1197.4594727</ele>
        <time>2013-08-06T13:51:11Z</time>
      </trkpt>
      <trkpt lat="44.2885" lon="6.15778">
        <ele>1197.9401855</ele>
        <time>2013-08-06T13:51:17Z</time>
      </trkpt>
      <trkpt lat="44.28852" lon="6.15775">
        <ele>1197.9401855</ele>
        <time>2013-08-06T13:51:20Z</time>
      </trkpt>
      <trkpt lat="44.28858" lon="6.15762">
        <ele>1197.9401855</ele>
        <time>2013-08-06T13:51:34Z</time>
      </trkpt>
      <trkpt lat="44.28864" lon="6.15745">
        <ele>1196.9787598</ele>
        <time>2013-08-06T13:51:53Z</time>
      </trkpt>
      <trkpt lat="44.28871" lon="6.15729">
        <ele>1195.5366211</ele>
        <time>2013-08-06T13:52:13Z</time>
      </trkpt>
      <trkpt lat="44.28872" lon="6.15725">
        <ele>1194.5751953</ele>
        <time>2013-08-06T13:52:17Z</time>
      </trkpt>
      <trkpt lat="44.28882" lon="6.1571">
        <ele>1192.1721191</ele>
        <time>2013-08-06T13:52:39Z</time>
      </trkpt>
      <trkpt lat="44.28895" lon="6.15702">
        <ele>1189.2880859</ele>
        <time>2013-08-06T13:53:04Z</time>
      </trkpt>
      <trkpt lat="44.28903" lon="6.15687">
        <ele>1186.8847656</ele>
        <time>2013-08-06T13:53:27Z</time>
      </trkpt>
      <trkpt lat="44.28906" lon="6.15671">
        <ele>1185.4428711</ele>
        <time>2013-08-06T13:53:47Z</time>
      </trkpt>
      <trkpt lat="44.28908" lon="6.1566">
        <ele>1182.559082</ele>
        <time>2013-08-06T13:54:07Z</time>
      </trkpt>
      <trkpt lat="44.28909" lon="6.15652">
        <ele>1180.1557617</ele>
        <time>2013-08-06T13:54:25Z</time>
      </trkpt>
      <trkpt lat="44.2891" lon="6.15636">
        <ele>1178.2329102</ele>
        <time>2013-08-06T13:54:40Z</time>
      </trkpt>
      <trkpt lat="44.28911" lon="6.15621">
        <ele>1176.3103027</ele>
        <time>2013-08-06T13:54:56Z</time>
      </trkpt>
      <trkpt lat="44.28911" lon="6.15617">
        <ele>1176.3103027</ele>
        <time>2013-08-06T13:54:58Z</time>
      </trkpt>
      <trkpt lat="44.28913" lon="6.15616">
        <ele>1176.3103027</ele>
        <time>2013-08-06T13:55:00Z</time>
      </trkpt>
      <trkpt lat="44.28912" lon="6.15612">
        <ele>1176.7910156</ele>
        <time>2013-08-06T13:55:03Z</time>
      </trkpt>
      <trkpt lat="44.28912" lon="6.1561">
        <ele>1175.348877</ele>
        <time>2013-08-06T13:55:05Z</time>
      </trkpt>
      <trkpt lat="44.28912" lon="6.15601">
        <ele>1174.8684082</ele>
        <time>2013-08-06T13:55:11Z</time>
      </trkpt>
      <trkpt lat="44.28909" lon="6.1559">
        <ele>1172.4650879</ele>
        <time>2013-08-06T13:55:30Z</time>
      </trkpt>
      <trkpt lat="44.28907" lon="6.15581">
        <ele>1171.984375</ele>
        <time>2013-08-06T13:55:36Z</time>
      </trkpt>
      <trkpt lat="44.28906" lon="6.15566">
        <ele>1170.0617676</ele>
        <time>2013-08-06T13:55:50Z</time>
      </trkpt>
      <trkpt lat="44.28904" lon="6.15555">
        <ele>1169.1005859</ele>
        <time>2013-08-06T13:55:58Z</time>
      </trkpt>
      <trkpt lat="44.28905" lon="6.15549">
        <ele>1168.619873</ele>
        <time>2013-08-06T13:56:12Z</time>
      </trkpt>
      <trkpt lat="44.28908" lon="6.15541">
        <ele>1168.1391602</ele>
        <time>2013-08-06T13:56:30Z</time>
      </trkpt>
      <trkpt lat="44.28908" lon="6.1554">
        <ele>1168.1391602</ele>
        <time>2013-08-06T13:56:31Z</time>
      </trkpt>
      <trkpt lat="44.28909" lon="6.1552">
        <ele>1166.6972656</ele>
        <time>2013-08-06T13:56:47Z</time>
      </trkpt>
      <trkpt lat="44.28914" lon="6.15494">
        <ele>1164.7746582</ele>
        <time>2013-08-06T13:57:09Z</time>
      </trkpt>
      <trkpt lat="44.28915" lon="6.15471">
        <ele>1162.8518066</ele>
        <time>2013-08-06T13:57:30Z</time>
      </trkpt>
      <trkpt lat="44.28915" lon="6.15451">
        <ele>1159.0065918</ele>
        <time>2013-08-06T13:57:51Z</time>
      </trkpt>
      <trkpt lat="44.28915" lon="6.1543">
        <ele>1157.0839844</ele>
        <time>2013-08-06T13:58:11Z</time>
      </trkpt>
      <trkpt lat="44.28921" lon="6.15411">
        <ele>1154.2001953</ele>
        <time>2013-08-06T13:58:31Z</time>
      </trkpt>
      <trkpt lat="44.28925" lon="6.15403">
        <ele>1152.2773438</ele>
        <time>2013-08-06T13:58:52Z</time>
      </trkpt>
      <trkpt lat="44.28931" lon="6.15391">
        <ele>1148.9128418</ele>
        <time>2013-08-06T13:59:09Z</time>
      </trkpt>
      <trkpt lat="44.28928" lon="6.1538">
        <ele>1146.0288086</ele>
        <time>2013-08-06T13:59:31Z</time>
      </trkpt>
      <trkpt lat="44.28926" lon="6.15361">
        <ele>1143.1447754</ele>
        <time>2013-08-06T13:59:51Z</time>
      </trkpt>
      <trkpt lat="44.28929" lon="6.15353">
        <ele>1142.6643066</ele>
        <time>2013-08-06T14:00:10Z</time>
      </trkpt>
      <trkpt lat="44.28935" lon="6.15354">
        <ele>1143.6254883</ele>
        <time>2013-08-06T14:00:20Z</time>
      </trkpt>
      <trkpt lat="44.28943" lon="6.15349">
        <ele>1142.1835938</ele>
        <time>2013-08-06T14:00:36Z</time>
      </trkpt>
      <trkpt lat="44.28944" lon="6.15345">
        <ele>1142.1835938</ele>
        <time>2013-08-06T14:01:06Z</time>
      </trkpt>
      <trkpt lat="44.28938" lon="6.15338">
        <ele>1140.7414551</ele>
        <time>2013-08-06T14:01:56Z</time>
      </trkpt>
      <trkpt lat="44.28938" lon="6.15325">
        <ele>1138.8190918</ele>
        <time>2013-08-06T14:02:15Z</time>
      </trkpt>
      <trkpt lat="44.28945" lon="6.15317">
        <ele>1137.857666</ele>
        <time>2013-08-06T14:02:29Z</time>
      </trkpt>
      <trkpt lat="44.28959" lon="6.15309">
        <ele>1136.8962402</ele>
        <time>2013-08-06T14:02:44Z</time>
      </trkpt>
      <trkpt lat="44.28963" lon="6.15304">
        <ele>1136.8962402</ele>
        <time>2013-08-06T14:03:00Z</time>
      </trkpt>
      <trkpt lat="44.28963" lon="6.15302">
        <ele>1133.5317383</ele>
        <time>2013-08-06T14:03:18Z</time>
      </trkpt>
      <trkpt lat="44.28963" lon="6.15302">
        <ele>1133.5317383</ele>
        <time>2013-08-06T14:03:19Z</time>
      </trkpt>
      <trkpt lat="44.28963" lon="6.15302">
        <ele>1136.4157715</ele>
        <time>2013-08-06T14:03:21Z</time>
      </trkpt>
      <trkpt lat="44.28963" lon="6.15303">
        <ele>1135.4543457</ele>
        <time>2013-08-06T14:03:45Z</time>
      </trkpt>
      <trkpt lat="44.28963" lon="6.15301">
        <ele>1136.4157715</ele>
        <time>2013-08-06T14:04:01Z</time>
      </trkpt>
      <trkpt lat="44.28966" lon="6.15297">
        <ele>1135.9350586</ele>
        <time>2013-08-06T14:04:13Z</time>
      </trkpt>
      <trkpt lat="44.28965" lon="6.15299">
        <ele>1134.973877</ele>
        <time>2013-08-06T14:04:27Z</time>
      </trkpt>
      <trkpt lat="44.28965" lon="6.153">
        <ele>1134.4931641</ele>
        <time>2013-08-06T14:04:42Z</time>
      </trkpt>
      <trkpt lat="44.28989" lon="6.15282">
        <ele>1131.6088867</ele>
        <time>2013-08-06T14:05:28Z</time>
      </trkpt>
      <trkpt lat="44.28999" lon="6.15281">
        <ele>1129.6862793</ele>
        <time>2013-08-06T14:05:30Z</time>
      </trkpt>
      <trkpt lat="44.29018" lon="6.15279">
        <ele>1127.2832031</ele>
        <time>2013-08-06T14:05:35Z</time>
      </trkpt>
      <trkpt lat="44.29022" lon="6.15276">
        <ele>1125.8410645</ele>
        <time>2013-08-06T14:05:36Z</time>
      </trkpt>
      <trkpt lat="44.29028" lon="6.15269">
        <ele>1124.8798828</ele>
        <time>2013-08-06T14:05:38Z</time>
      </trkpt>
      <trkpt lat="44.29032" lon="6.1526">
        <ele>1123.918457</ele>
        <time>2013-08-06T14:05:40Z</time>
      </trkpt>
      <trkpt lat="44.29033" lon="6.15248">
        <ele>1122.4765625</ele>
        <time>2013-08-06T14:05:42Z</time>
      </trkpt>
      <trkpt lat="44.29033" lon="6.15221">
        <ele>1121.9958496</ele>
        <time>2013-08-06T14:05:45Z</time>
      </trkpt>
      <trkpt lat="44.28971" lon="6.15306">
        <ele>1085.9465332</ele>
      </trkpt>
      <trkpt lat="44.28956" lon="6.15312">
        <ele>1089.791748</ele>
      </trkpt>
      <trkpt lat="44.28957" lon="6.1531">
        <ele>1109.0180664</ele>
      </trkpt>
      <trkpt lat="44.28959" lon="6.15315">
        <ele>1113.8244629</ele>
      </trkpt>
      <trkpt lat="44.28946" lon="6.15325">
        <ele>1116.2280273</ele>
      </trkpt>
      <trkpt lat="44.28942" lon="6.15357">
        <ele>1121.034668</ele>
      </trkpt>
      <trkpt lat="44.28912" lon="6.15369">
        <ele>1121.5151367</ele>
      </trkpt>
      <trkpt lat="44.28926" lon="6.15367">
        <ele>1121.5151367</ele>
      </trkpt>
      <trkpt lat="44.28925" lon="6.15385">
        <ele>1124.3991699</ele>
      </trkpt>
      <trkpt lat="44.28928" lon="6.15362">
        <ele>1121.034668</ele>
      </trkpt>
      <trkpt lat="44.28951" lon="6.15356">
        <ele>1121.034668</ele>
      </trkpt>
      <trkpt lat="44.28974" lon="6.15358">
        <ele>1123.4379883</ele>
      </trkpt>
      <trkpt lat="44.28954" lon="6.15359">
        <ele>1121.034668</ele>
      </trkpt>
      <trkpt lat="44.28943" lon="6.15341">
        <ele>1117.6699219</ele>
      </trkpt>
      <trkpt lat="44.28942" lon="6.15327">
        <ele>1116.2280273</ele>
      </trkpt>
      <trkpt lat="44.28962" lon="6.15316">
        <ele>1112.8632813</ele>
      </trkpt>
      <trkpt lat="44.28986" lon="6.15282">
        <ele>1109.0180664</ele>
      </trkpt>
      <trkpt lat="44.29028" lon="6.15272">
        <ele>1101.8083496</ele>
      </trkpt>
      <trkpt lat="44.29035" lon="6.15178">
        <ele>1097.0014648</ele>
      </trkpt>
      <trkpt lat="44.2908" lon="6.15094">
        <ele>1088.3498535</ele>
      </trkpt>
      <trkpt lat="44.29081" lon="6.15076">
        <ele>1086.4272461</ele>
      </trkpt>
      <trkpt lat="44.29053" lon="6.15089">
        <ele>1084.9853516</ele>
      </trkpt>
      <trkpt lat="44.29019" lon="6.15121">
        <ele>1083.0622559</ele>
      </trkpt>
      <trkpt lat="44.29002" lon="6.15129">
        <ele>1081.6203613</ele>
      </trkpt>
      <trkpt lat="44.28974" lon="6.15096">
        <ele>1079.6977539</ele>
      </trkpt>
      <trkpt lat="44.28941" lon="6.15091">
        <ele>1075.3718262</ele>
      </trkpt>
      <trkpt lat="44.28934" lon="6.15066">
        <ele>1074.4106445</ele>
      </trkpt>
      <trkpt lat="44.28941" lon="6.15029">
        <ele>1078.7365723</ele>
      </trkpt>
      <trkpt lat="44.28932" lon="6.15013">
        <ele>1080.1784668</ele>
      </trkpt>
      <trkpt lat="44.28921" lon="6.15037">
        <ele>1083.5429688</ele>
      </trkpt>
      <trkpt lat="44.28904" lon="6.15043">
        <ele>1085.9465332</ele>
      </trkpt>
      <trkpt lat="44.28886" lon="6.15036">
        <ele>1088.8305664</ele>
      </trkpt>
      <trkpt lat="44.28873" lon="6.15052">
        <ele>1092.1950684</ele>
      </trkpt>
      <trkpt lat="44.28861" lon="6.15051">
        <ele>1095.0788574</ele>
      </trkpt>
      <trkpt lat="44.28878" lon="6.15019">
        <ele>1095.5595703</ele>
      </trkpt>
      <trkpt lat="44.28891" lon="6.14975">
        <ele>1099.4047852</ele>
      </trkpt>
      <trkpt lat="44.28867" lon="6.1495">
        <ele>1102.7695313</ele>
      </trkpt>
      <trkpt lat="44.28861" lon="6.14927">
        <ele>1104.6921387</ele>
      </trkpt>
      <trkpt lat="44.2884" lon="6.14923">
        <ele>1106.6147461</ele>
      </trkpt>
      <trkpt lat="44.28793" lon="6.14971">
        <ele>1113.3439941</ele>
      </trkpt>
      <trkpt lat="44.28784" lon="6.15017">
        <ele>1117.6699219</ele>
      </trkpt>
      <trkpt lat="44.28799" lon="6.1504">
        <ele>1120.0732422</ele>
      </trkpt>
      <trkpt lat="44.28793" lon="6.15074">
        <ele>1122.4765625</ele>
      </trkpt>
      <trkpt lat="44.28778" lon="6.15085">
        <ele>1124.8798828</ele>
      </trkpt>
      <trkpt lat="44.28742" lon="6.15091">
        <ele>1129.6862793</ele>
      </trkpt>
      <trkpt lat="44.2871" lon="6.1513">
        <ele>1132.5705566</ele>
      </trkpt>
      <trkpt lat="44.28717" lon="6.15139">
        <ele>1133.0510254</ele>
      </trkpt>
      <trkpt lat="44.28731" lon="6.15139">
        <ele>1134.973877</ele>
      </trkpt>
      <trkpt lat="44.28735" lon="6.15156">
        <ele>1136.8962402</ele>
      </trkpt>
      <trkpt lat="44.28724" lon="6.15185">
        <ele>1140.7414551</ele>
      </trkpt>
      <trkpt lat="44.28717" lon="6.15234">
        <ele>1142.6643066</ele>
      </trkpt>
      <trkpt lat="44.28685" lon="6.15304">
        <ele>1146.5095215</ele>
      </trkpt>
      <trkpt lat="44.28673" lon="6.15363">
        <ele>1151.796875</ele>
      </trkpt>
      <trkpt lat="44.28646" lon="6.15406">
        <ele>1156.1225586</ele>
      </trkpt>
      <trkpt lat="44.28652" lon="6.15484">
        <ele>1155.6420898</ele>
      </trkpt>
      <trkpt lat="44.28638" lon="6.15573">
        <ele>1158.5258789</ele>
      </trkpt>
      <trkpt lat="44.28619" lon="6.15619">
        <ele>1161.890625</ele>
      </trkpt>
      <trkpt lat="44.28543" lon="6.15695">
        <ele>1177.7521973</ele>
      </trkpt>
      <trkpt lat="44.28532" lon="6.15715">
        <ele>1179.6748047</ele>
      </trkpt>
      <trkpt lat="44.2853" lon="6.15769">
        <ele>1183.5202637</ele>
      </trkpt>
      <trkpt lat="44.28484" lon="6.15826">
        <ele>1188.3269043</ele>
      </trkpt>
      <trkpt lat="44.2847" lon="6.15876">
        <ele>1192.652832</ele>
      </trkpt>
      <trkpt lat="44.28428" lon="6.15922">
        <ele>1197.9401855</ele>
      </trkpt>
      <trkpt lat="44.28393" lon="6.15941">
        <ele>1202.746582</ele>
      </trkpt>
      <trkpt lat="44.28372" lon="6.15945">
        <ele>1205.1499023</ele>
      </trkpt>
      <trkpt lat="44.28368" lon="6.15978">
        <ele>1208.5144043</ele>
      </trkpt>
      <trkpt lat="44.28357" lon="6.15996">
        <ele>1210.9177246</ele>
      </trkpt>
      <trkpt lat="44.28328" lon="6.15994">
        <ele>1214.7631836</ele>
      </trkpt>
      <trkpt lat="44.28312" lon="6.15955">
        <ele>1218.6083984</ele>
      </trkpt>
      <trkpt lat="44.28321" lon="6.15922">
        <ele>1220.050293</ele>
      </trkpt>
      <trkpt lat="44.28353" lon="6.15864">
        <ele>1221.9729004</ele>
      </trkpt>
      <trkpt lat="44.28366" lon="6.15778">
        <ele>1228.7023926</ele>
      </trkpt>
      <trkpt lat="44.28385" lon="6.15756">
        <ele>1227.7407227</ele>
      </trkpt>
      <trkpt lat="44.28407" lon="6.15696">
        <ele>1231.5861816</ele>
      </trkpt>
      <trkpt lat="44.28444" lon="6.15653">
        <ele>1232.0668945</ele>
      </trkpt>
      <trkpt lat="44.28474" lon="6.15597">
        <ele>1232.0668945</ele>
      </trkpt>
      <trkpt lat="44.28477" lon="6.15556">
        <ele>1232.0668945</ele>
      </trkpt>
      <trkpt lat="44.28484" lon="6.15555">
        <ele>1232.0668945</ele>
      </trkpt>
      <trkpt lat="44.28491" lon="6.15528">
        <ele>1234.4702148</ele>
      </trkpt>
      <trkpt lat="44.28481" lon="6.15512">
        <ele>1238.7961426</ele>
      </trkpt>
      <trkpt lat="44.28475" lon="6.15521">
        <ele>1240.2380371</ele>
      </trkpt>
      <trkpt lat="44.28459" lon="6.1552">
        <ele>1245.0446777</ele>
      </trkpt>
      <trkpt lat="44.28439" lon="6.15561">
        <ele>1242.6413574</ele>
      </trkpt>
      <trkpt lat="44.28415" lon="6.15579">
        <ele>1244.0834961</ele>
      </trkpt>
      <trkpt lat="44.28402" lon="6.15611">
        <ele>1246.0061035</ele>
      </trkpt>
      <trkpt lat="44.28366" lon="6.15648">
        <ele>1248.4091797</ele>
      </trkpt>
      <trkpt lat="44.28342" lon="6.15685">
        <ele>1253.2158203</ele>
      </trkpt>
      <trkpt lat="44.28332" lon="6.15688">
        <ele>1253.6965332</ele>
      </trkpt>
      <trkpt lat="44.28317" lon="6.15716">
        <ele>1257.0610352</ele>
      </trkpt>
      <trkpt lat="44.28277" lon="6.15752">
        <ele>1262.3483887</ele>
      </trkpt>
      <trkpt lat="44.28268" lon="6.15754">
        <ele>1263.3098145</ele>
      </trkpt>
      <trkpt lat="44.28228" lon="6.15781">
        <ele>1268.5969238</ele>
      </trkpt>
      <trkpt lat="44.28175" lon="6.15857">
        <ele>1277.7294922</ele>
      </trkpt>
      <trkpt lat="44.28166" lon="6.1582">
        <ele>1282.5361328</ele>
      </trkpt>
      <trkpt lat="44.2817" lon="6.158">
        <ele>1283.9780273</ele>
      </trkpt>
      <trkpt lat="44.28164" lon="6.15759">
        <ele>1287.8232422</ele>
      </trkpt>
      <trkpt lat="44.28164" lon="6.15739">
        <ele>1288.784668</ele>
      </trkpt>
      <trkpt lat="44.28172" lon="6.15728">
        <ele>1291.1877441</ele>
      </trkpt>
      <trkpt lat="44.28171" lon="6.15636">
        <ele>1298.3977051</ele>
      </trkpt>
      <trkpt lat="44.28166" lon="6.15627">
        <ele>1301.7624512</ele>
      </trkpt>
      <trkpt lat="44.28158" lon="6.15638">
        <ele>1304.1657715</ele>
      </trkpt>
      <trkpt lat="44.28153" lon="6.1563">
        <ele>1306.5688477</ele>
      </trkpt>
      <trkpt lat="44.28157" lon="6.15588">
        <ele>1311.3757324</ele>
      </trkpt>
      <trkpt lat="44.28155" lon="6.15571">
        <ele>1312.817627</ele>
      </trkpt>
      <trkpt lat="44.28147" lon="6.15564">
        <ele>1314.2595215</ele>
      </trkpt>
      <trkpt lat="44.28098" lon="6.15587">
        <ele>1326.276123</ele>
      </trkpt>
      <trkpt lat="44.28072" lon="6.15619">
        <ele>1333.9665527</ele>
      </trkpt>
      <trkpt lat="44.28059" lon="6.15619">
        <ele>1336.369873</ele>
      </trkpt>
      <trkpt lat="44.28048" lon="6.15632">
        <ele>1339.734375</ele>
      </trkpt>
      <trkpt lat="44.28035" lon="6.15633">
        <ele>1343.579834</ele>
      </trkpt>
      <trkpt lat="44.28014" lon="6.15655">
        <ele>1351.7509766</ele>
      </trkpt>
      <trkpt lat="44.27999" lon="6.15659">
        <ele>1354.6347656</ele>
      </trkpt>
      <trkpt lat="44.27998" lon="6.15668">
        <ele>1357.519043</ele>
      </trkpt>
      <trkpt lat="44.27966" lon="6.15672">
        <ele>1363.2868652</ele>
      </trkpt>
      <trkpt lat="44.27969" lon="6.15676">
        <ele>1366.6513672</ele>
      </trkpt>
      <trkpt lat="44.2796" lon="6.15706">
        <ele>1371.4577637</ele>
      </trkpt>
      <trkpt lat="44.27852" lon="6.15693">
        <ele>1385.3969727</ele>
      </trkpt>
      <trkpt lat="44.27822" lon="6.15663">
        <ele>1393.5683594</ele>
      </trkpt>
      <trkpt lat="44.27802" lon="6.15598">
        <ele>1407.0268555</ele>
      </trkpt>
      <trkpt lat="44.27787" lon="6.15581">
        <ele>1412.7946777</ele>
      </trkpt>
      <trkpt lat="44.27775" lon="6.15544">
        <ele>1423.8498535</ele>
      </trkpt>
      <trkpt lat="44.27728" lon="6.1553">
        <ele>1435.8662109</ele>
      </trkpt>
      <trkpt lat="44.27681" lon="6.15543">
        <ele>1442.5957031</ele>
      </trkpt>
      <trkpt lat="44.27663" lon="6.1553">
        <ele>1447.4020996</ele>
      </trkpt>
      <trkpt lat="44.27614" lon="6.15582">
        <ele>1456.534668</ele>
      </trkpt>
      <trkpt lat="44.27538" lon="6.15617">
        <ele>1458.4572754</ele>
      </trkpt>
      <trkpt lat="44.27514" lon="6.15638">
        <ele>1463.263916</ele>
      </trkpt>
      <trkpt lat="44.27508" lon="6.15655">
        <ele>1463.7443848</ele>
      </trkpt>
      <trkpt lat="44.275" lon="6.15657">
        <ele>1463.7443848</ele>
      </trkpt>
      <trkpt lat="44.2751" lon="6.15652">
        <ele>1462.7832031</ele>
      </trkpt>
      <trkpt lat="44.2751" lon="6.15689">
        <ele>1465.1865234</ele>
      </trkpt>
      <trkpt lat="44.27449" lon="6.15758">
        <ele>1473.3579102</ele>
      </trkpt>
      <trkpt lat="44.27435" lon="6.15834">
        <ele>1481.0483398</ele>
      </trkpt>
      <trkpt lat="44.27438" lon="6.15871">
        <ele>1485.8549805</ele>
      </trkpt>
      <trkpt lat="44.27433" lon="6.15884">
        <ele>1488.7390137</ele>
      </trkpt>
      <trkpt lat="44.27438" lon="6.15886">
        <ele>1489.2194824</ele>
      </trkpt>
      <trkpt lat="44.27398" lon="6.15962">
        <ele>1505.0812988</ele>
      </trkpt>
      <trkpt lat="44.27392" lon="6.16045">
        <ele>1516.6171875</ele>
      </trkpt>
      <trkpt lat="44.2738" lon="6.16034">
        <ele>1519.0205078</ele>
      </trkpt>
      <trkpt lat="44.27379" lon="6.16026">
        <ele>1520.9431152</ele>
      </trkpt>
      <trkpt lat="44.27368" lon="6.16022">
        <ele>1523.8269043</ele>
      </trkpt>
      <trkpt lat="44.27356" lon="6.16034">
        <ele>1526.7109375</ele>
      </trkpt>
      <trkpt lat="44.2732" lon="6.16124">
        <ele>1542.092041</ele>
      </trkpt>
      <trkpt lat="44.27304" lon="6.16185">
        <ele>1552.185791</ele>
      </trkpt>
      <trkpt lat="44.273" lon="6.16256">
        <ele>1564.2023926</ele>
      </trkpt>
      <trkpt lat="44.27274" lon="6.16288">
        <ele>1574.7768555</ele>
      </trkpt>
      <trkpt lat="44.27258" lon="6.16285">
        <ele>1581.5061035</ele>
      </trkpt>
      <trkpt lat="44.27239" lon="6.16293">
        <ele>1588.7160645</ele>
      </trkpt>
      <trkpt lat="44.2721" lon="6.16284">
        <ele>1599.2905273</ele>
      </trkpt>
      <trkpt lat="44.27204" lon="6.16297">
        <ele>1602.6550293</ele>
      </trkpt>
      <trkpt lat="44.27183" lon="6.16462">
        <ele>1636.3012695</ele>
      </trkpt>
      <trkpt lat="44.27174" lon="6.16497">
        <ele>1644.4724121</ele>
      </trkpt>
      <trkpt lat="44.27175" lon="6.16559">
        <ele>1655.5275879</ele>
      </trkpt>
      <trkpt lat="44.27164" lon="6.16588">
        <ele>1661.7763672</ele>
      </trkpt>
      <trkpt lat="44.27152" lon="6.16587">
        <ele>1666.5827637</ele>
      </trkpt>
      <trkpt lat="44.27141" lon="6.16599">
        <ele>1670.9086914</ele>
      </trkpt>
      <trkpt lat="44.27091" lon="6.16699">
        <ele>1689.6542969</ele>
      </trkpt>
      <trkpt lat="44.27077" lon="6.16772">
        <ele>1693.4997559</ele>
      </trkpt>
      <trkpt lat="44.27056" lon="6.16844">
        <ele>1702.1513672</ele>
      </trkpt>
      <trkpt lat="44.27045" lon="6.1694">
        <ele>1718.0131836</ele>
      </trkpt>
      <trkpt lat="44.2705" lon="6.16994">
        <ele>1724.7426758</ele>
      </trkpt>
      <trkpt lat="44.2704" lon="6.17032">
        <ele>1731.4716797</ele>
      </trkpt>
      <trkpt lat="44.27036" lon="6.17042">
        <ele>1734.3557129</ele>
      </trkpt>
      <trkpt lat="44.26989" lon="6.17051">
        <ele>1746.3723145</ele>
      </trkpt>
      <trkpt lat="44.26962" lon="6.17048">
        <ele>1756.4660645</ele>
      </trkpt>
      <trkpt lat="44.2697" lon="6.17089">
        <ele>1762.7145996</ele>
      </trkpt>
      <trkpt lat="44.26968" lon="6.17121">
        <ele>1769.4438477</ele>
      </trkpt>
      <trkpt lat="44.26957" lon="6.17153">
        <ele>1774.2504883</ele>
      </trkpt>
      <trkpt lat="44.26947" lon="6.17161">
        <ele>1778.0957031</ele>
      </trkpt>
      <trkpt lat="44.26936" lon="6.17241">
        <ele>1776.1730957</ele>
      </trkpt>
      <trkpt lat="44.26921" lon="6.17303">
        <ele>1778.576416</ele>
      </trkpt>
      <trkpt lat="44.26923" lon="6.17336">
        <ele>1780.4990234</ele>
      </trkpt>
      <trkpt lat="44.26921" lon="6.17364">
        <ele>1782.9020996</ele>
      </trkpt>
      <trkpt lat="44.26908" lon="6.17398">
        <ele>1787.2280273</ele>
      </trkpt>
      <trkpt lat="44.26897" lon="6.17477">
        <ele>1793.9575195</ele>
      </trkpt>
      <trkpt lat="44.26893" lon="6.17538">
        <ele>1800.2060547</ele>
      </trkpt>
      <trkpt lat="44.26899" lon="6.17605">
        <ele>1803.5705566</ele>
      </trkpt>
      <trkpt lat="44.26894" lon="6.17727">
        <ele>1809.338623</ele>
      </trkpt>
      <trkpt lat="44.26904" lon="6.17885">
        <ele>1820.3937988</ele>
      </trkpt>
      <trkpt lat="44.26928" lon="6.18026">
        <ele>1822.7971191</ele>
      </trkpt>
      <trkpt lat="44.26928" lon="6.18065">
        <ele>1822.7971191</ele>
      </trkpt>
      <trkpt lat="44.26936" lon="6.18137">
        <ele>1818.9516602</ele>
      </trkpt>
      <trkpt lat="44.26968" lon="6.18262">
        <ele>1816.067627</ele>
      </trkpt>
      <trkpt lat="44.26976" lon="6.18365">
        <ele>1829.0454102</ele>
      </trkpt>
      <trkpt lat="44.26984" lon="6.18445">
        <ele>1852.1171875</ele>
      </trkpt>
      <trkpt lat="44.26979" lon="6.18451">
        <ele>1855.0012207</ele>
      </trkpt>
      <trkpt lat="44.26988" lon="6.18468">
        <ele>1862.6916504</ele>
      </trkpt>
      <trkpt lat="44.26983" lon="6.18475">
        <ele>1863.652832</ele>
      </trkpt>
      <trkpt lat="44.26992" lon="6.18503">
        <ele>1871.3435059</ele>
      </trkpt>
      <trkpt lat="44.27008" lon="6.18518">
        <ele>1877.1115723</ele>
      </trkpt>
      <trkpt lat="44.26989" lon="6.18548">
        <ele>1889.1279297</ele>
      </trkpt>
      <trkpt lat="44.27001" lon="6.18585">
        <ele>1897.7797852</ele>
      </trkpt>
      <trkpt lat="44.26996" lon="6.18595">
        <ele>1900.6638184</ele>
      </trkpt>
      <trkpt lat="44.27001" lon="6.18614">
        <ele>1906.9123535</ele>
      </trkpt>
      <trkpt lat="44.26997" lon="6.18619">
        <ele>1908.8349609</ele>
      </trkpt>
      <trkpt lat="44.26996" lon="6.18614">
        <ele>1911.7189941</ele>
      </trkpt>
      <trkpt lat="44.26977" lon="6.18628">
        <ele>1917.0063477</ele>
      </trkpt>
      <trkpt lat="44.2693" lon="6.18685">
        <ele>1936.232666</ele>
      </trkpt>
      <trkpt lat="44.26889" lon="6.18707">
        <ele>1955.9394531</ele>
      </trkpt>
      <trkpt lat="44.2688" lon="6.1872">
        <ele>1959.784668</ele>
      </trkpt>
      <trkpt lat="44.26869" lon="6.18756">
        <ele>1966.994873</ele>
      </trkpt>
      <trkpt lat="44.26866" lon="6.18799">
        <ele>1969.8786621</ele>
      </trkpt>
      <trkpt lat="44.26846" lon="6.18851">
        <ele>1980.934082</ele>
      </trkpt>
      <trkpt lat="44.26835" lon="6.18919">
        <ele>1988.1437988</ele>
      </trkpt>
      <trkpt lat="44.26842" lon="6.18946">
        <ele>1990.0664063</ele>
      </trkpt>
      <trkpt lat="44.26816" lon="6.18986">
        <ele>1998.7182617</ele>
      </trkpt>
      <trkpt lat="44.26813" lon="6.19036">
        <ele>2007.8508301</ele>
      </trkpt>
      <trkpt lat="44.26794" lon="6.19049">
        <ele>2007.8508301</ele>
      </trkpt>
      <trkpt lat="44.26764" lon="6.19094">
        <ele>2014.0993652</ele>
      </trkpt>
      <trkpt lat="44.26757" lon="6.19115">
        <ele>2016.9833984</ele>
      </trkpt>
      <trkpt lat="44.26757" lon="6.19156">
        <ele>2018.425293</ele>
      </trkpt>
      <trkpt lat="44.26738" lon="6.19193">
        <ele>2028.5192871</ele>
      </trkpt>
      <trkpt lat="44.26709" lon="6.19227">
        <ele>2034.2871094</ele>
      </trkpt>
      <trkpt lat="44.26693" lon="6.19232">
        <ele>2045.3422852</ele>
      </trkpt>
      <trkpt lat="44.26686" lon="6.19249">
        <ele>2047.2648926</ele>
      </trkpt>
      <trkpt lat="44.26685" lon="6.19247">
        <ele>2050.6293945</ele>
      </trkpt>
      <trkpt lat="44.26678" lon="6.19253">
        <ele>2052.0712891</ele>
      </trkpt>
      <trkpt lat="44.26672" lon="6.1925">
        <ele>2052.552002</ele>
      </trkpt>
      <trkpt lat="44.26677" lon="6.19261">
        <ele>2055.4360352</ele>
      </trkpt>
      <trkpt lat="44.26673" lon="6.19271">
        <ele>2052.0712891</ele>
      </trkpt>
      <trkpt lat="44.26661" lon="6.19285">
        <ele>2060.2426758</ele>
      </trkpt>
      <trkpt lat="44.26651" lon="6.19307">
        <ele>2056.8779297</ele>
      </trkpt>
      <trkpt lat="44.26648" lon="6.19334">
        <ele>2066.4912109</ele>
      </trkpt>
      <trkpt lat="44.2664" lon="6.19349">
        <ele>2071.2976074</ele>
      </trkpt>
      <trkpt lat="44.26634" lon="6.19356">
        <ele>2074.6623535</ele>
      </trkpt>
      <trkpt lat="44.26619" lon="6.19355">
        <ele>2081.8723145</ele>
      </trkpt>
      <trkpt lat="44.26602" lon="6.19386">
        <ele>2088.6015625</ele>
      </trkpt>
      <trkpt lat="44.26589" lon="6.19404">
        <ele>2087.1594238</ele>
      </trkpt>
      <trkpt lat="44.26561" lon="6.19445">
        <ele>2095.3308105</ele>
      </trkpt>
      <trkpt lat="44.26561" lon="6.19444">
        <ele>2099.6567383</ele>
      </trkpt>
      <trkpt lat="44.26553" lon="6.1941">
        <ele>2101.0986328</ele>
      </trkpt>
      <trkpt lat="44.26553" lon="6.19424">
        <ele>2097.7341309</ele>
      </trkpt>
      <trkpt lat="44.26549" lon="6.19425">
        <ele>2100.1374512</ele>
      </trkpt>
      <trkpt lat="44.26566" lon="6.19403">
        <ele>2097.7341309</ele>
      </trkpt>
      <trkpt lat="44.26574" lon="6.19384">
        <ele>2092.9274902</ele>
      </trkpt>
      <trkpt lat="44.26603" lon="6.19376">
        <ele>2089.5627441</ele>
      </trkpt>
      <trkpt lat="44.26618" lon="6.19352">
        <ele>2083.314209</ele>
      </trkpt>
      <trkpt lat="44.26631" lon="6.19355">
        <ele>2078.5078125</ele>
      </trkpt>
      <trkpt lat="44.26637" lon="6.1934">
        <ele>2074.1816406</ele>
      </trkpt>
      <trkpt lat="44.26648" lon="6.19333">
        <ele>2070.3364258</ele>
      </trkpt>
      <trkpt lat="44.26651" lon="6.19306">
        <ele>2060.7233887</ele>
      </trkpt>
      <trkpt lat="44.26677" lon="6.19251">
        <ele>2055.4360352</ele>
      </trkpt>
      <trkpt lat="44.26691" lon="6.19249">
        <ele>2050.6293945</ele>
      </trkpt>
      <trkpt lat="44.267" lon="6.19228">
        <ele>2043.9001465</ele>
      </trkpt>
      <trkpt lat="44.26713" lon="6.19223">
        <ele>2038.1323242</ele>
      </trkpt>
      <trkpt lat="44.26727" lon="6.192">
        <ele>2033.8063965</ele>
      </trkpt>
      <trkpt lat="44.26744" lon="6.19193">
        <ele>2032.364502</ele>
      </trkpt>
      <trkpt lat="44.26746" lon="6.19178">
        <ele>2033.3256836</ele>
      </trkpt>
      <trkpt lat="44.26761" lon="6.19155">
        <ele>2026.1157227</ele>
      </trkpt>
      <trkpt lat="44.26772" lon="6.19123">
        <ele>2022.7512207</ele>
      </trkpt>
      <trkpt lat="44.26765" lon="6.1911">
        <ele>2022.7512207</ele>
      </trkpt>
      <trkpt lat="44.26769" lon="6.19087">
        <ele>2020.3479004</ele>
      </trkpt>
      <trkpt lat="44.26807" lon="6.19033">
        <ele>2014.0993652</ele>
      </trkpt>
      <trkpt lat="44.2681" lon="6.19021">
        <ele>2016.5026855</ele>
      </trkpt>
      <trkpt lat="44.26804" lon="6.18997">
        <ele>2011.6960449</ele>
      </trkpt>
      <trkpt lat="44.26839" lon="6.18948">
        <ele>1998.2375488</ele>
      </trkpt>
      <trkpt lat="44.26836" lon="6.18912">
        <ele>1995.3535156</ele>
      </trkpt>
      <trkpt lat="44.26846" lon="6.1885">
        <ele>1990.546875</ele>
      </trkpt>
      <trkpt lat="44.26863" lon="6.18808">
        <ele>1981.4145508</ele>
      </trkpt>
      <trkpt lat="44.26879" lon="6.18722">
        <ele>1974.2045898</ele>
      </trkpt>
      <trkpt lat="44.26881" lon="6.18705">
        <ele>1967.4753418</ele>
      </trkpt>
      <trkpt lat="44.26945" lon="6.18669">
        <ele>1941.0390625</ele>
      </trkpt>
      <trkpt lat="44.26976" lon="6.18622">
        <ele>1928.5419922</ele>
      </trkpt>
      <trkpt lat="44.26994" lon="6.18613">
        <ele>1921.3320313</ele>
      </trkpt>
      <trkpt lat="44.27006" lon="6.18641">
        <ele>1917.0063477</ele>
      </trkpt>
      <trkpt lat="44.26973" lon="6.18789">
        <ele>1924.2160645</ele>
      </trkpt>
      <trkpt lat="44.26982" lon="6.18823">
        <ele>1929.5031738</ele>
      </trkpt>
      <trkpt lat="44.26976" lon="6.18879">
        <ele>1929.5031738</ele>
      </trkpt>
      <trkpt lat="44.26979" lon="6.18929">
        <ele>1927.5805664</ele>
      </trkpt>
      <trkpt lat="44.27004" lon="6.18969">
        <ele>1928.0612793</ele>
      </trkpt>
      <trkpt lat="44.26998" lon="6.19037">
        <ele>1923.7353516</ele>
      </trkpt>
      <trkpt lat="44.26981" lon="6.1906">
        <ele>1924.2160645</ele>
      </trkpt>
      <trkpt lat="44.26968" lon="6.19108">
        <ele>1923.2548828</ele>
      </trkpt>
      <trkpt lat="44.26954" lon="6.19129">
        <ele>1925.1772461</ele>
      </trkpt>
      <trkpt lat="44.26928" lon="6.19152">
        <ele>1928.5419922</ele>
      </trkpt>
      <trkpt lat="44.26925" lon="6.19173">
        <ele>1931.4257813</ele>
      </trkpt>
      <trkpt lat="44.26904" lon="6.192">
        <ele>1935.2712402</ele>
      </trkpt>
      <trkpt lat="44.26894" lon="6.19234">
        <ele>1940.0778809</ele>
      </trkpt>
      <trkpt lat="44.2689" lon="6.19252">
        <ele>1936.7131348</ele>
      </trkpt>
      <trkpt lat="44.26881" lon="6.19259">
        <ele>1934.7907715</ele>
      </trkpt>
      <trkpt lat="44.26876" lon="6.19291">
        <ele>1930.4645996</ele>
      </trkpt>
      <trkpt lat="44.26838" lon="6.19383">
        <ele>1918.9289551</ele>
      </trkpt>
      <trkpt lat="44.26847" lon="6.19391">
        <ele>1916.5256348</ele>
      </trkpt>
      <trkpt lat="44.26844" lon="6.19421">
        <ele>1913.6413574</ele>
      </trkpt>
      <trkpt lat="44.26853" lon="6.19453">
        <ele>1906.9123535</ele>
      </trkpt>
      <trkpt lat="44.26849" lon="6.19484">
        <ele>1903.5478516</ele>
      </trkpt>
      <trkpt lat="44.26858" lon="6.19525">
        <ele>1899.2216797</ele>
      </trkpt>
      <trkpt lat="44.26881" lon="6.19578">
        <ele>1894.4150391</ele>
      </trkpt>
      <trkpt lat="44.26886" lon="6.19602">
        <ele>1893.4538574</ele>
      </trkpt>
      <trkpt lat="44.26893" lon="6.19602">
        <ele>1892.9731445</ele>
      </trkpt>
      <trkpt lat="44.26914" lon="6.19622">
        <ele>1892.4926758</ele>
      </trkpt>
      <trkpt lat="44.26937" lon="6.19662">
        <ele>1886.2441406</ele>
      </trkpt>
      <trkpt lat="44.26995" lon="6.19704">
        <ele>1875.1887207</ele>
      </trkpt>
      <trkpt lat="44.2701" lon="6.19726">
        <ele>1872.7856445</ele>
      </trkpt>
      <trkpt lat="44.27072" lon="6.1975">
        <ele>1867.0175781</ele>
      </trkpt>
      <trkpt lat="44.27072" lon="6.19755">
        <ele>1866.5368652</ele>
      </trkpt>
      <trkpt lat="44.27098" lon="6.19769">
        <ele>1860.769043</ele>
      </trkpt>
      <trkpt lat="44.27148" lon="6.19868">
        <ele>1847.3105469</ele>
      </trkpt>
      <trkpt lat="44.27182" lon="6.19905">
        <ele>1841.5427246</ele>
      </trkpt>
      <trkpt lat="44.27201" lon="6.19903">
        <ele>1837.2167969</ele>
      </trkpt>
      <trkpt lat="44.27227" lon="6.19914">
        <ele>1836.2556152</ele>
      </trkpt>
      <trkpt lat="44.27235" lon="6.19929">
        <ele>1833.3713379</ele>
      </trkpt>
      <trkpt lat="44.27241" lon="6.19929">
        <ele>1830.0068359</ele>
      </trkpt>
      <trkpt lat="44.27245" lon="6.19909">
        <ele>1830.4875488</ele>
      </trkpt>
      <trkpt lat="44.27255" lon="6.1981">
        <ele>1822.3164063</ele>
      </trkpt>
      <trkpt lat="44.27268" lon="6.19784">
        <ele>1819.432373</ele>
      </trkpt>
      <trkpt lat="44.27297" lon="6.19769">
        <ele>1809.338623</ele>
      </trkpt>
      <trkpt lat="44.27309" lon="6.19754">
        <ele>1806.4545898</ele>
      </trkpt>
      <trkpt lat="44.27308" lon="6.19745">
        <ele>1806.4545898</ele>
      </trkpt>
      <trkpt lat="44.27326" lon="6.19718">
        <ele>1799.7253418</ele>
      </trkpt>
      <trkpt lat="44.27362" lon="6.19686">
        <ele>1788.6704102</ele>
      </trkpt>
      <trkpt lat="44.27392" lon="6.19648">
        <ele>1780.9797363</ele>
      </trkpt>
      <trkpt lat="44.27421" lon="6.19633">
        <ele>1774.2504883</ele>
      </trkpt>
      <trkpt lat="44.2745" lon="6.19633">
        <ele>1768.001709</ele>
      </trkpt>
      <trkpt lat="44.27466" lon="6.19609">
        <ele>1762.7145996</ele>
      </trkpt>
      <trkpt lat="44.27504" lon="6.196">
        <ele>1756.9467773</ele>
      </trkpt>
      <trkpt lat="44.2751" lon="6.19576">
        <ele>1753.5820313</ele>
      </trkpt>
      <trkpt lat="44.2753" lon="6.19569">
        <ele>1749.7368164</ele>
      </trkpt>
      <trkpt lat="44.27556" lon="6.19526">
        <ele>1739.1621094</ele>
      </trkpt>
      <trkpt lat="44.276" lon="6.19475">
        <ele>1721.3776855</ele>
      </trkpt>
      <trkpt lat="44.2764" lon="6.19448">
        <ele>1709.842041</ele>
      </trkpt>
      <trkpt lat="44.27676" lon="6.19401">
        <ele>1698.7868652</ele>
      </trkpt>
      <trkpt lat="44.27719" lon="6.19367">
        <ele>1691.5769043</ele>
      </trkpt>
      <trkpt lat="44.27742" lon="6.19336">
        <ele>1686.2897949</ele>
      </trkpt>
      <trkpt lat="44.2778" lon="6.19313">
        <ele>1682.9250488</ele>
      </trkpt>
      <trkpt lat="44.27832" lon="6.19247">
        <ele>1669.9472656</ele>
      </trkpt>
      <trkpt lat="44.27838" lon="6.1923">
        <ele>1668.0246582</ele>
      </trkpt>
      <trkpt lat="44.27849" lon="6.19219">
        <ele>1668.0246582</ele>
      </trkpt>
      <trkpt lat="44.27843" lon="6.1923">
        <ele>1668.0246582</ele>
      </trkpt>
      <trkpt lat="44.27836" lon="6.19224">
        <ele>1666.1020508</ele>
      </trkpt>
      <trkpt lat="44.27819" lon="6.19171">
        <ele>1655.5275879</ele>
      </trkpt>
      <trkpt lat="44.2781" lon="6.19163">
        <ele>1653.1242676</ele>
      </trkpt>
      <trkpt lat="44.27818" lon="6.19096">
        <ele>1650.7209473</ele>
      </trkpt>
      <trkpt lat="44.27794" lon="6.18997">
        <ele>1649.2790527</ele>
      </trkpt>
      <trkpt lat="44.27812" lon="6.1895">
        <ele>1646.3952637</ele>
      </trkpt>
      <trkpt lat="44.2784" lon="6.18926">
        <ele>1642.5498047</ele>
      </trkpt>
      <trkpt lat="44.27863" lon="6.18926">
        <ele>1640.1464844</ele>
      </trkpt>
      <trkpt lat="44.27869" lon="6.18932">
        <ele>1639.6657715</ele>
      </trkpt>
      <trkpt lat="44.27898" lon="6.18916">
        <ele>1635.8205566</ele>
      </trkpt>
      <trkpt lat="44.27931" lon="6.18891">
        <ele>1631.4946289</ele>
      </trkpt>
      <trkpt lat="44.27937" lon="6.18872">
        <ele>1630.0527344</ele>
      </trkpt>
      <trkpt lat="44.27992" lon="6.18813">
        <ele>1618.9975586</ele>
      </trkpt>
      <trkpt lat="44.28034" lon="6.18796">
        <ele>1614.6716309</ele>
      </trkpt>
      <trkpt lat="44.28049" lon="6.18797">
        <ele>1613.7102051</ele>
      </trkpt>
      <trkpt lat="44.28064" lon="6.18825">
        <ele>1612.2683105</ele>
      </trkpt>
      <trkpt lat="44.28115" lon="6.18737">
        <ele>1604.5776367</ele>
      </trkpt>
      <trkpt lat="44.28133" lon="6.1873">
        <ele>1603.1357422</ele>
      </trkpt>
      <trkpt lat="44.28138" lon="6.18737">
        <ele>1602.1743164</ele>
      </trkpt>
      <trkpt lat="44.28141" lon="6.18758">
        <ele>1600.7324219</ele>
      </trkpt>
      <trkpt lat="44.28149" lon="6.18759">
        <ele>1599.2905273</ele>
      </trkpt>
      <trkpt lat="44.28156" lon="6.18753">
        <ele>1598.8098145</ele>
      </trkpt>
      <trkpt lat="44.28157" lon="6.18719">
        <ele>1596.887207</ele>
      </trkpt>
      <trkpt lat="44.28173" lon="6.1869">
        <ele>1594.4836426</ele>
      </trkpt>
      <trkpt lat="44.28171" lon="6.18679">
        <ele>1594.0031738</ele>
      </trkpt>
      <trkpt lat="44.28107" lon="6.1868">
        <ele>1588.2353516</ele>
      </trkpt>
      <trkpt lat="44.28047" lon="6.18654">
        <ele>1584.3901367</ele>
      </trkpt>
      <trkpt lat="44.27986" lon="6.1866">
        <ele>1581.9868164</ele>
      </trkpt>
      <trkpt lat="44.2797" lon="6.18654">
        <ele>1581.0256348</ele>
      </trkpt>
      <trkpt lat="44.27973" lon="6.18628">
        <ele>1582.4675293</ele>
      </trkpt>
      <trkpt lat="44.28016" lon="6.18574">
        <ele>1581.9868164</ele>
      </trkpt>
      <trkpt lat="44.28053" lon="6.18507">
        <ele>1582.4675293</ele>
      </trkpt>
      <trkpt lat="44.28072" lon="6.18451">
        <ele>1579.583252</ele>
      </trkpt>
      <trkpt lat="44.28073" lon="6.18417">
        <ele>1577.6606445</ele>
      </trkpt>
      <trkpt lat="44.28085" lon="6.18384">
        <ele>1576.21875</ele>
      </trkpt>
      <trkpt lat="44.28093" lon="6.18381">
        <ele>1576.21875</ele>
      </trkpt>
      <trkpt lat="44.28105" lon="6.18356">
        <ele>1575.7380371</ele>
      </trkpt>
      <trkpt lat="44.28108" lon="6.18336">
        <ele>1574.7768555</ele>
      </trkpt>
      <trkpt lat="44.28136" lon="6.18312">
        <ele>1571.8928223</ele>
      </trkpt>
      <trkpt lat="44.28189" lon="6.18306">
        <ele>1567.0864258</ele>
      </trkpt>
      <trkpt lat="44.28225" lon="6.18285">
        <ele>1563.7214355</ele>
      </trkpt>
      <trkpt lat="44.2825" lon="6.182">
        <ele>1561.7990723</ele>
      </trkpt>
      <trkpt lat="44.28224" lon="6.18151">
        <ele>1562.279541</ele>
      </trkpt>
      <trkpt lat="44.28226" lon="6.18017">
        <ele>1563.2409668</ele>
      </trkpt>
      <trkpt lat="44.28217" lon="6.17969">
        <ele>1562.279541</ele>
      </trkpt>
      <trkpt lat="44.28194" lon="6.17935">
        <ele>1561.7990723</ele>
      </trkpt>
      <trkpt lat="44.28178" lon="6.17937">
        <ele>1560.3569336</ele>
      </trkpt>
      <trkpt lat="44.28165" lon="6.17932">
        <ele>1557.4731445</ele>
      </trkpt>
      <trkpt lat="44.28168" lon="6.17907">
        <ele>1550.7438965</ele>
      </trkpt>
      <trkpt lat="44.28195" lon="6.17837">
        <ele>1531.9980469</ele>
      </trkpt>
      <trkpt lat="44.2822" lon="6.1783">
        <ele>1525.7495117</ele>
      </trkpt>
      <trkpt lat="44.2822" lon="6.17822">
        <ele>1522.8657227</ele>
      </trkpt>
      <trkpt lat="44.2825" lon="6.17795">
        <ele>1517.5783691</ele>
      </trkpt>
      <trkpt lat="44.28241" lon="6.17791">
        <ele>1515.1750488</ele>
      </trkpt>
      <trkpt lat="44.28244" lon="6.17771">
        <ele>1511.8105469</ele>
      </trkpt>
      <trkpt lat="44.28238" lon="6.17763">
        <ele>1508.4458008</ele>
      </trkpt>
      <trkpt lat="44.28241" lon="6.17744">
        <ele>1505.5620117</ele>
      </trkpt>
      <trkpt lat="44.28252" lon="6.1773">
        <ele>1501.7167969</ele>
      </trkpt>
      <trkpt lat="44.28241" lon="6.17717">
        <ele>1498.8325195</ele>
      </trkpt>
      <trkpt lat="44.28259" lon="6.17672">
        <ele>1494.026123</ele>
      </trkpt>
      <trkpt lat="44.28256" lon="6.17667">
        <ele>1493.5454102</ele>
      </trkpt>
      <trkpt lat="44.28231" lon="6.1769">
        <ele>1483.9321289</ele>
      </trkpt>
      <trkpt lat="44.28206" lon="6.17639">
        <ele>1471.4350586</ele>
      </trkpt>
      <trkpt lat="44.28206" lon="6.17616">
        <ele>1470.473877</ele>
      </trkpt>
      <trkpt lat="44.28188" lon="6.17608">
        <ele>1467.5895996</ele>
      </trkpt>
      <trkpt lat="44.28177" lon="6.1756">
        <ele>1463.7443848</ele>
      </trkpt>
      <trkpt lat="44.28153" lon="6.17612">
        <ele>1459.8991699</ele>
      </trkpt>
      <trkpt lat="44.28138" lon="6.17549">
        <ele>1454.6120605</ele>
      </trkpt>
      <trkpt lat="44.28116" lon="6.17553">
        <ele>1454.1315918</ele>
      </trkpt>
      <trkpt lat="44.28101" lon="6.1755">
        <ele>1460.3798828</ele>
      </trkpt>
      <trkpt lat="44.28109" lon="6.17522">
        <ele>1462.3024902</ele>
      </trkpt>
      <trkpt lat="44.28119" lon="6.17525">
        <ele>1462.7832031</ele>
      </trkpt>
      <trkpt lat="44.28116" lon="6.17556">
        <ele>1463.263916</ele>
      </trkpt>
      <trkpt lat="44.28138" lon="6.17219">
        <ele>1353.673584</ele>
      </trkpt>
      <trkpt lat="44.28163" lon="6.1719">
        <ele>1355.5961914</ele>
      </trkpt>
      <trkpt lat="44.28176" lon="6.17178">
        <ele>1354.6347656</ele>
      </trkpt>
      <trkpt lat="44.28218" lon="6.17157">
        <ele>1345.0217285</ele>
      </trkpt>
      <trkpt lat="44.28237" lon="6.17138">
        <ele>1340.6958008</ele>
      </trkpt>
      <trkpt lat="44.28246" lon="6.1711">
        <ele>1339.734375</ele>
      </trkpt>
      <trkpt lat="44.28258" lon="6.17098">
        <ele>1337.8117676</ele>
      </trkpt>
      <trkpt lat="44.28263" lon="6.17082">
        <ele>1332.0439453</ele>
      </trkpt>
      <trkpt lat="44.2824" lon="6.1709">
        <ele>1330.1213379</ele>
      </trkpt>
      <trkpt lat="44.28252" lon="6.17073">
        <ele>1328.1987305</ele>
      </trkpt>
      <trkpt lat="44.2826" lon="6.17051">
        <ele>1326.276123</ele>
      </trkpt>
      <trkpt lat="44.28259" lon="6.17029">
        <ele>1325.7954102</ele>
      </trkpt>
      <trkpt lat="44.28269" lon="6.1701">
        <ele>1323.8725586</ele>
      </trkpt>
      <trkpt lat="44.28263" lon="6.16986">
        <ele>1322.4306641</ele>
      </trkpt>
      <trkpt lat="44.28279" lon="6.16919">
        <ele>1315.2209473</ele>
      </trkpt>
      <trkpt lat="44.28276" lon="6.16898">
        <ele>1311.8564453</ele>
      </trkpt>
      <trkpt lat="44.28285" lon="6.16876">
        <ele>1307.0495605</ele>
      </trkpt>
      <trkpt lat="44.28285" lon="6.1683">
        <ele>1301.2817383</ele>
      </trkpt>
      <trkpt lat="44.28299" lon="6.16801">
        <ele>1295.9946289</ele>
      </trkpt>
      <trkpt lat="44.28286" lon="6.16786">
        <ele>1291.668457</ele>
      </trkpt>
      <trkpt lat="44.28264" lon="6.1678">
        <ele>1289.2651367</ele>
      </trkpt>
      <trkpt lat="44.28262" lon="6.16761">
        <ele>1285.9006348</ele>
      </trkpt>
      <trkpt lat="44.28295" lon="6.16711">
        <ele>1274.845459</ele>
      </trkpt>
      <trkpt lat="44.28319" lon="6.16717">
        <ele>1272.4421387</ele>
      </trkpt>
      <trkpt lat="44.28327" lon="6.16728">
        <ele>1271.0002441</ele>
      </trkpt>
      <trkpt lat="44.28339" lon="6.16728">
        <ele>1271.4807129</ele>
      </trkpt>
      <trkpt lat="44.28354" lon="6.1671">
        <ele>1271.4807129</ele>
      </trkpt>
      <trkpt lat="44.28357" lon="6.16632">
        <ele>1271.9614258</ele>
      </trkpt>
      <trkpt lat="44.28361" lon="6.16622">
        <ele>1272.4421387</ele>
      </trkpt>
      <trkpt lat="44.28382" lon="6.16608">
        <ele>1273.4035645</ele>
      </trkpt>
      <trkpt lat="44.28369" lon="6.16551">
        <ele>1277.7294922</ele>
      </trkpt>
      <trkpt lat="44.28376" lon="6.16536">
        <ele>1277.7294922</ele>
      </trkpt>
      <trkpt lat="44.28404" lon="6.16509">
        <ele>1273.4035645</ele>
      </trkpt>
      <trkpt lat="44.28415" lon="6.16486">
        <ele>1271.9614258</ele>
      </trkpt>
      <trkpt lat="44.28438" lon="6.16468">
        <ele>1269.5583496</ele>
      </trkpt>
      <trkpt lat="44.28441" lon="6.16436">
        <ele>1267.1550293</ele>
      </trkpt>
      <trkpt lat="44.28454" lon="6.16395">
        <ele>1264.2709961</ele>
      </trkpt>
      <trkpt lat="44.28498" lon="6.16332">
        <ele>1258.9836426</ele>
      </trkpt>
      <trkpt lat="44.28515" lon="6.1629">
        <ele>1257.541748</ele>
      </trkpt>
      <trkpt lat="44.28528" lon="6.16287">
        <ele>1252.7351074</ele>
      </trkpt>
      <trkpt lat="44.2856" lon="6.16298">
        <ele>1250.3320313</ele>
      </trkpt>
      <trkpt lat="44.28585" lon="6.16262">
        <ele>1246.9672852</ele>
      </trkpt>
      <trkpt lat="44.28608" lon="6.16291">
        <ele>1242.6413574</ele>
      </trkpt>
      <trkpt lat="44.28635" lon="6.16291">
        <ele>1239.2766113</ele>
      </trkpt>
      <trkpt lat="44.28665" lon="6.16314">
        <ele>1235.4313965</ele>
      </trkpt>
      <trkpt lat="44.28701" lon="6.16267">
        <ele>1235.9121094</ele>
      </trkpt>
      <trkpt lat="44.28715" lon="6.1626">
        <ele>1235.9121094</ele>
      </trkpt>
      <trkpt lat="44.28733" lon="6.16234">
        <ele>1236.873291</ele>
      </trkpt>
      <trkpt lat="44.28748" lon="6.16223">
        <ele>1237.3540039</ele>
      </trkpt>
      <trkpt lat="44.28755" lon="6.16175">
        <ele>1227.2602539</ele>
      </trkpt>
      <trkpt lat="44.28768" lon="6.16163">
        <ele>1225.3374023</ele>
      </trkpt>
      <trkpt lat="44.28786" lon="6.1613">
        <ele>1221.4921875</ele>
      </trkpt>
      <trkpt lat="44.28819" lon="6.16135">
        <ele>1218.1276855</ele>
      </trkpt>
      <trkpt lat="44.28825" lon="6.16123">
        <ele>1216.2050781</ele>
      </trkpt>
      <trkpt lat="44.2884" lon="6.1608">
        <ele>1212.8405762</ele>
      </trkpt>
      <trkpt lat="44.28841" lon="6.16051">
        <ele>1209.9562988</ele>
      </trkpt>
      <trkpt lat="44.28858" lon="6.15996">
        <ele>1200.3435059</ele>
      </trkpt>
      <trkpt lat="44.28857" lon="6.15937">
        <ele>1193.1333008</ele>
      </trkpt>
      <trkpt lat="44.28863" lon="6.15917">
        <ele>1191.2106934</ele>
      </trkpt>
      <trkpt lat="44.28848" lon="6.15785">
        <ele>1197.4594727</ele>
      </trkpt>
      <trkpt lat="44.28871" lon="6.15729">
        <ele>1195.5366211</ele>
      </trkpt>
      <trkpt lat="44.28903" lon="6.15687">
        <ele>1186.8847656</ele>
      </trkpt>
      <trkpt lat="44.28913" lon="6.15616">
        <ele>1176.3103027</ele>
      </trkpt>
      <trkpt lat="44.28904" lon="6.15555">
        <ele>1169.1005859</ele>
      </trkpt>
      <trkpt lat="44.28914" lon="6.15494">
        <ele>1164.7746582</ele>
      </trkpt>
      <trkpt lat="44.28915" lon="6.1543">
        <ele>1157.0839844</ele>
      </trkpt>
      <trkpt lat="44.28931" lon="6.15391">
        <ele>1148.9128418</ele>
      </trkpt>
      <trkpt lat="44.28926" lon="6.15361">
        <ele>1143.1447754</ele>
      </trkpt>
      <trkpt lat="44.28943" lon="6.15349">
        <ele>1142.1835938</ele>
      </trkpt>
      <trkpt lat="44.28938" lon="6.15325">
        <ele>1138.8190918</ele>
      </trkpt>
      <trkpt lat="44.28963" lon="6.15304">
        <ele>1136.8962402</ele>
      </trkpt>
    </trkseg>
  </trk>
</gpx>